createdAt,value
2023-04-02T00:01:44.508Z,6.82
2023-04-02T00:05:34.943Z,6.91
2023-04-02T00:08:44.888Z,6.92
2023-04-02T00:11:56.769Z,6.88
2023-04-02T00:15:05.476Z,6.82
2023-04-02T00:18:20.343Z,6.78
2023-04-02T00:21:38.793Z,6.78
2023-04-02T00:24:53.783Z,6.76
2023-04-02T00:28:06.164Z,6.75
2023-04-02T00:31:16.404Z,6.72
2023-04-02T00:34:29.124Z,6.73
2023-04-02T00:37:39.483Z,6.85
2023-04-02T00:40:50.739Z,6.75
2023-04-02T00:43:59.098Z,6.70
2023-04-02T00:47:23.304Z,6.65
2023-04-02T00:50:38.695Z,6.71
2023-04-02T00:53:50.570Z,6.69
2023-04-02T00:57:01.653Z,6.59
2023-04-02T01:00:27.045Z,6.66
2023-04-02T01:03:45.257Z,6.73
2023-04-02T01:06:53.806Z,6.74
2023-04-02T01:10:27.340Z,6.75
2023-04-02T01:13:45.437Z,6.66
2023-04-02T01:17:06.360Z,6.69
2023-04-02T01:20:55.324Z,6.66
2023-04-02T01:24:09.010Z,6.62
2023-04-02T01:27:28.996Z,6.67
2023-04-02T01:30:41.894Z,6.64
2023-04-02T01:33:48.245Z,6.56
2023-04-02T01:37:22.600Z,6.57
2023-04-02T01:40:50.789Z,6.53
2023-04-02T01:44:12.409Z,6.54
2023-04-02T01:47:32.111Z,6.61
2023-04-02T01:50:42.520Z,6.59
2023-04-02T01:53:48.770Z,6.60
2023-04-02T01:56:56.193Z,6.59
2023-04-02T02:00:20.422Z,6.64
2023-04-02T02:03:38.699Z,6.64
2023-04-02T02:06:46.406Z,6.58
2023-04-02T02:09:56.512Z,6.50
2023-04-02T02:13:09.448Z,6.41
2023-04-02T02:16:30.301Z,6.48
2023-04-02T02:19:46.607Z,6.46
2023-04-02T02:22:55.690Z,6.62
2023-04-02T02:26:02.368Z,6.68
2023-04-02T02:29:21.850Z,6.61
2023-04-02T02:32:35.385Z,6.54
2023-04-02T02:35:56.424Z,6.54
2023-04-02T02:39:27.172Z,6.58
2023-04-02T02:42:41.924Z,6.65
2023-04-02T02:45:51.994Z,6.69
2023-04-02T02:49:04.644Z,6.66
2023-04-02T02:52:22.454Z,6.66
2023-04-02T02:55:43.483Z,6.56
2023-04-02T02:58:58.431Z,6.59
2023-04-02T03:02:21.557Z,6.50
2023-04-02T03:05:31.664Z,6.53
2023-04-02T03:08:59.239Z,6.41
2023-04-02T03:12:39.047Z,6.34
2023-04-02T03:16:05.189Z,6.35
2023-04-02T03:19:31.547Z,6.32
2023-04-02T03:22:49.650Z,6.07
2023-04-02T03:26:11.764Z,6.09
2023-04-02T03:29:33.400Z,6.04
2023-04-02T03:32:46.555Z,5.98
2023-04-02T03:36:08.289Z,5.94
2023-04-02T03:39:29.339Z,5.98
2023-04-02T03:42:52.572Z,5.95
2023-04-02T03:46:21.711Z,6.03
2023-04-02T03:49:39.677Z,6.01
2023-04-02T03:52:46.622Z,5.97
2023-04-02T03:55:58.235Z,5.99
2023-04-02T03:59:25.069Z,5.96
2023-04-02T04:02:52.530Z,5.93
2023-04-02T04:06:08.040Z,5.78
2023-04-02T04:09:30.060Z,5.71
2023-04-02T04:12:43.811Z,5.71
2023-04-02T04:16:06.664Z,5.76
2023-04-02T04:19:25.656Z,5.74
2023-04-02T04:22:34.298Z,5.72
2023-04-02T04:26:05.796Z,5.70
2023-04-02T04:29:35.098Z,5.67
2023-04-02T04:32:58.753Z,5.44
2023-04-02T04:36:09.373Z,5.48
2023-04-02T04:39:30.002Z,5.61
2023-04-02T04:42:46.494Z,5.52
2023-04-02T04:46:08.701Z,5.43
2023-04-02T04:49:30.584Z,5.44
2023-04-02T04:52:42.421Z,5.60
2023-04-02T04:55:53.641Z,5.61
2023-04-02T04:59:09.491Z,5.61
2023-04-02T05:02:36.486Z,5.55
2023-04-02T05:05:50.758Z,5.63
2023-04-02T05:09:21.496Z,5.72
2023-04-02T05:12:43.336Z,5.75
2023-04-02T05:16:08.162Z,5.78
2023-04-02T05:19:26.586Z,5.79
2023-04-02T05:22:47.547Z,5.78
2023-04-02T05:26:03.122Z,5.69
2023-04-02T05:29:22.320Z,5.62
2023-04-02T05:32:39.941Z,5.60
2023-04-02T05:35:57.466Z,5.58
2023-04-02T05:39:19.329Z,5.63
2023-04-02T05:42:41.186Z,5.60
2023-04-02T05:46:01.431Z,5.38
2023-04-02T05:49:21.187Z,5.20
2023-04-02T05:52:37.371Z,5.00
2023-04-02T05:56:00.073Z,4.84
2023-04-02T05:59:25.350Z,4.71
2023-04-02T06:02:43.547Z,4.64
2023-04-02T06:05:55.497Z,4.56
2023-04-02T06:09:14.790Z,4.62
2023-04-02T06:12:38.266Z,4.36
2023-04-02T06:15:47.984Z,4.23
2023-04-02T06:19:03.076Z,4.11
2023-04-02T06:22:27.603Z,3.87
2023-04-02T06:25:45.861Z,3.53
2023-04-02T06:29:08.071Z,3.40
2023-04-02T06:32:16.186Z,3.19
2023-04-02T06:35:40.201Z,3.10
2023-04-02T06:38:50.239Z,2.83
2023-04-02T06:42:19.184Z,2.72
2023-04-02T06:46:01.181Z,2.60
2023-04-02T06:49:29.279Z,2.45
2023-04-02T06:52:49.735Z,2.45
2023-04-02T06:56:07.293Z,2.50
2023-04-02T06:59:16.002Z,2.46
2023-04-02T07:02:40.428Z,2.34
2023-04-02T07:05:53.173Z,2.22
2023-04-02T07:09:00.472Z,2.08
2023-04-02T07:12:15.786Z,2.17
2023-04-02T07:15:24.862Z,2.21
2023-04-02T07:18:36.858Z,2.28
2023-04-02T07:21:53.032Z,2.29
2023-04-02T07:25:01.090Z,2.35
2023-04-02T07:28:19.147Z,2.44
2023-04-02T07:31:32.882Z,2.10
2023-04-02T07:34:43.012Z,2.14
2023-04-02T07:37:49.286Z,1.92
2023-04-02T07:40:56.867Z,1.86
2023-04-02T07:44:03.440Z,1.83
2023-04-02T07:47:10.961Z,1.80
2023-04-02T07:50:20.124Z,1.67
2023-04-02T07:53:33.430Z,1.76
2023-04-02T07:56:40.901Z,1.85
2023-04-02T07:59:47.848Z,2.02
2023-04-02T08:02:54.905Z,1.80
2023-04-02T08:06:04.864Z,1.67
2023-04-02T08:09:11.100Z,1.50
2023-04-02T08:12:18.795Z,1.37
2023-04-02T08:15:25.031Z,1.48
2023-04-02T08:18:32.426Z,1.36
2023-04-02T08:21:41.073Z,1.10
2023-04-02T08:24:48.010Z,0.82
2023-04-02T08:27:54.504Z,0.87
2023-04-02T08:31:01.756Z,0.83
2023-04-02T08:34:09.584Z,0.95
2023-04-02T08:37:19.229Z,1.07
2023-04-02T08:40:36.673Z,0.92
2023-04-02T08:44:21.645Z,0.80
2023-04-02T08:47:43.984Z,0.88
2023-04-02T08:51:18.296Z,0.69
2023-04-02T08:54:32.853Z,0.77
2023-04-02T08:57:54.890Z,0.91
2023-04-02T09:01:09.059Z,0.94
2023-04-02T09:04:26.234Z,0.88
2023-04-02T09:07:34.185Z,0.84
2023-04-02T09:10:54.113Z,1.07
2023-04-02T09:14:08.829Z,1.04
2023-04-02T09:17:23.871Z,1.01
2023-04-02T09:20:31.764Z,1.04
2023-04-02T09:23:38.967Z,1.20
2023-04-02T09:26:47.711Z,1.06
2023-04-02T09:30:08.640Z,1.20
2023-04-02T09:33:14.899Z,1.06
2023-04-02T09:36:38.863Z,1.22
2023-04-02T09:39:45.566Z,1.09
2023-04-02T09:43:15.154Z,0.99
2023-04-02T09:46:27.714Z,1.04
2023-04-02T09:49:38.919Z,1.14
2023-04-02T09:52:45.200Z,1.16
2023-04-02T09:55:52.084Z,0.99
2023-04-02T09:59:25.357Z,1.01
2023-04-02T10:02:33.896Z,1.05
2023-04-02T10:05:41.504Z,1.00
2023-04-02T10:08:49.895Z,0.85
2023-04-02T10:12:00.592Z,0.79
2023-04-02T10:15:30.661Z,0.88
2023-04-02T10:18:54.693Z,0.93
2023-04-02T10:22:18.868Z,0.97
2023-04-02T10:25:44.387Z,0.91
2023-04-02T10:29:19.470Z,0.80
2023-04-02T10:32:40.407Z,0.97
2023-04-02T10:36:05.471Z,0.96
2023-04-02T10:39:39.571Z,0.84
2023-04-02T10:43:05.121Z,0.71
2023-04-02T10:46:31.392Z,0.85
2023-04-02T10:49:53.920Z,0.89
2023-04-02T10:53:12.452Z,0.88
2023-04-02T10:56:20.084Z,0.85
2023-04-02T10:59:40.616Z,0.92
2023-04-02T11:03:01.561Z,1.06
2023-04-02T11:06:26.198Z,1.18
2023-04-02T11:09:44.500Z,1.13
2023-04-02T11:13:02.597Z,1.17
2023-04-02T11:16:10.833Z,1.14
2023-04-02T11:19:31.539Z,1.03
2023-04-02T11:22:41.827Z,0.98
2023-04-02T11:25:50.703Z,0.99
2023-04-02T11:29:24.405Z,1.01
2023-04-02T11:32:43.521Z,0.93
2023-04-02T11:35:50.582Z,1.26
2023-04-02T11:39:04.622Z,1.33
2023-04-02T11:42:37.089Z,1.28
2023-04-02T11:45:59.950Z,1.17
2023-04-02T11:49:44.482Z,1.13
2023-04-02T11:52:57.691Z,1.16
2023-04-02T11:56:24.964Z,1.14
2023-04-02T11:59:49.271Z,1.26
2023-04-02T12:03:32.858Z,1.11
2023-04-02T12:07:02.555Z,1.00
2023-04-02T12:10:24.334Z,0.97
2023-04-02T12:13:59.097Z,1.11
2023-04-02T12:17:24.641Z,1.16
2023-04-02T12:20:36.045Z,1.42
2023-04-02T12:23:43.884Z,1.57
2023-04-02T12:26:50.145Z,1.54
2023-04-02T12:30:17.645Z,1.44
2023-04-02T12:33:37.570Z,1.11
2023-04-02T12:37:09.622Z,1.16
2023-04-02T12:40:22.686Z,1.22
2023-04-02T12:43:32.142Z,1.32
2023-04-02T12:46:43.543Z,1.17
2023-04-02T12:49:53.357Z,1.13
2023-04-02T12:53:01.284Z,1.11
2023-04-02T12:56:27.607Z,1.20
2023-04-02T12:59:39.476Z,1.25
2023-04-02T13:03:22.807Z,1.14
2023-04-02T13:06:34.369Z,1.25
2023-04-02T13:09:51.855Z,1.38
2023-04-02T13:13:01.012Z,1.44
2023-04-02T13:16:28.179Z,1.55
2023-04-02T13:19:38.067Z,1.58
2023-04-02T13:22:45.310Z,1.57
2023-04-02T13:25:52.054Z,1.38
2023-04-02T13:29:07.035Z,1.49
2023-04-02T13:32:16.784Z,1.40
2023-04-02T13:35:27.498Z,1.49
2023-04-02T13:38:38.537Z,1.46
2023-04-02T13:42:02.923Z,1.24
2023-04-02T13:45:28.505Z,1.39
2023-04-02T13:48:35.587Z,1.68
2023-04-02T13:51:49.353Z,1.62
2023-04-02T13:55:01.739Z,1.47
2023-04-02T13:58:09.172Z,1.42
2023-04-02T14:01:19.776Z,1.22
2023-04-02T14:04:35.204Z,1.33
2023-04-02T14:08:09.266Z,1.12
2023-04-02T14:11:43.165Z,1.00
2023-04-02T14:15:16.036Z,0.98
2023-04-02T14:18:58.979Z,1.20
2023-04-02T14:22:29.179Z,1.17
2023-04-02T14:25:51.671Z,1.12
2023-04-02T14:29:10.949Z,1.29
2023-04-02T14:32:29.045Z,1.28
2023-04-02T14:35:45.256Z,1.12
2023-04-02T14:39:05.212Z,1.28
2023-04-02T14:42:23.928Z,1.18
2023-04-02T14:45:52.098Z,1.27
2023-04-02T14:49:10.179Z,1.11
2023-04-02T14:52:23.094Z,1.19
2023-04-02T14:55:40.417Z,1.22
2023-04-02T14:58:58.303Z,1.17
2023-04-02T15:02:17.203Z,1.35
2023-04-02T15:05:31.277Z,1.20
2023-04-02T15:09:02.198Z,1.35
2023-04-02T15:12:26.888Z,1.10
2023-04-02T15:15:49.829Z,1.02
2023-04-02T15:19:00.330Z,1.04
2023-04-02T15:22:31.205Z,1.03
2023-04-02T15:25:51.726Z,1.20
2023-04-02T15:29:27.805Z,1.21
2023-04-02T15:32:43.804Z,1.12
2023-04-02T15:36:01.846Z,1.00
2023-04-02T15:39:48.052Z,1.08
2023-04-02T15:43:08.043Z,1.21
2023-04-02T15:46:29.463Z,1.18
2023-04-02T15:49:46.656Z,1.01
2023-04-02T15:53:11.357Z,1.18
2023-04-02T15:56:31.688Z,1.14
2023-04-02T16:00:16.155Z,1.19
2023-04-02T16:03:47.667Z,1.06
2023-04-02T16:07:33.645Z,1.02
2023-04-02T16:10:45.412Z,1.00
2023-04-02T16:13:51.791Z,0.83
2023-04-02T16:17:17.678Z,0.85
2023-04-02T16:20:34.960Z,0.72
2023-04-02T16:23:45.953Z,0.71
2023-04-02T16:27:12.014Z,0.70
2023-04-02T16:30:44.483Z,0.80
2023-04-02T16:34:06.348Z,0.80
2023-04-02T16:37:30.334Z,0.88
2023-04-02T16:41:00.495Z,0.82
2023-04-02T16:44:35.424Z,0.85
2023-04-02T16:48:03.259Z,0.83
2023-04-02T16:51:23.655Z,0.80
2023-04-02T16:54:46.801Z,0.64
2023-04-02T16:58:17.344Z,0.58
2023-04-02T17:01:39.224Z,0.58
2023-04-02T17:05:14.646Z,0.69
2023-04-02T17:08:28.287Z,0.53
2023-04-02T17:11:45.968Z,0.21
2023-04-02T17:15:02.664Z,0.43
2023-04-02T17:18:21.602Z,0.44
2023-04-02T17:21:31.012Z,0.24
2023-04-02T17:24:47.728Z,0.13
2023-04-02T17:27:59.548Z,0.09
2023-04-02T17:31:20.948Z,0.17
2023-04-02T17:34:27.138Z,0.11
2023-04-02T17:37:47.141Z,0.01
2023-04-02T17:41:05.862Z,-0.03
2023-04-02T17:44:41.559Z,0.05
2023-04-02T17:48:06.162Z,-0.19
2023-04-02T17:51:30.668Z,-0.09
2023-04-02T17:54:56.470Z,-0.08
2023-04-02T17:58:24.648Z,-0.16
2023-04-02T18:01:39.869Z,-0.12
2023-04-02T18:05:10.080Z,-0.26
2023-04-02T18:08:29.982Z,-0.16
2023-04-02T18:11:55.376Z,-0.10
2023-04-02T18:15:42.980Z,-0.16
2023-04-02T18:19:13.994Z,-0.16
2023-04-02T18:22:37.755Z,-0.11
2023-04-02T18:25:59.461Z,-0.08
2023-04-02T18:29:30.422Z,-0.10
2023-04-02T18:33:10.774Z,-0.01
2023-04-02T18:36:28.829Z,-0.06
2023-04-02T18:40:01.438Z,-0.19
2023-04-02T18:43:30.946Z,-0.04
2023-04-02T18:46:52.660Z,-0.03
2023-04-02T18:50:20.275Z,0.04
2023-04-02T18:53:32.425Z,-0.01
2023-04-02T18:56:43.395Z,0.01
2023-04-02T19:00:00.510Z,-0.00
2023-04-02T19:03:22.613Z,0.11
2023-04-02T19:06:39.305Z,0.05
2023-04-02T19:09:51.018Z,-0.04
2023-04-02T19:13:00.815Z,-0.18
2023-04-02T19:16:43.865Z,0.06
2023-04-02T19:20:11.153Z,0.03
2023-04-02T19:23:46.868Z,0.11
2023-04-02T19:27:05.642Z,0.03
2023-04-02T19:31:01.510Z,-0.07
2023-04-02T19:34:28.003Z,-0.10
2023-04-02T19:37:45.128Z,0.00
2023-04-02T19:41:04.058Z,-0.00
2023-04-02T19:44:14.679Z,0.13
2023-04-02T19:47:25.878Z,0.08
2023-04-02T19:50:32.686Z,0.08
2023-04-02T19:53:39.609Z,-0.00
2023-04-02T19:56:45.867Z,0.05
2023-04-02T19:59:52.979Z,0.17
2023-04-02T20:03:01.782Z,0.17
2023-04-02T20:06:08.961Z,0.23
2023-04-02T20:09:15.037Z,0.32
2023-04-02T20:12:22.014Z,0.32
2023-04-02T20:15:28.179Z,0.13
2023-04-02T20:18:38.390Z,0.18
2023-04-02T20:21:44.431Z,0.06
2023-04-02T20:24:51.373Z,0.19
2023-04-02T20:27:57.445Z,0.21
2023-04-02T20:31:14.103Z,0.34
2023-04-02T20:34:22.966Z,0.39
2023-04-02T20:37:30.448Z,0.47
2023-04-02T20:40:37.176Z,0.50
2023-04-02T20:43:44.215Z,0.45
2023-04-02T20:46:50.253Z,0.51
2023-04-02T20:49:59.712Z,0.55
2023-04-02T20:53:08.600Z,0.52
2023-04-02T20:56:19.764Z,0.48
2023-04-02T20:59:25.824Z,0.42
2023-04-02T21:02:33.545Z,0.35
2023-04-02T21:05:46.763Z,0.34
2023-04-02T21:08:54.471Z,0.30
2023-04-02T21:12:00.573Z,-0.00
2023-04-02T21:15:08.371Z,0.07
2023-04-02T21:18:16.538Z,0.13
2023-04-02T21:21:31.739Z,0.17
2023-04-02T21:24:37.740Z,0.12
2023-04-02T21:27:44.551Z,0.18
2023-04-02T21:30:50.616Z,0.28
2023-04-02T21:34:09.738Z,0.25
2023-04-02T21:37:21.036Z,0.36
2023-04-02T21:40:27.856Z,0.37
2023-04-02T21:43:33.810Z,0.30
2023-04-02T21:46:43.476Z,0.27
2023-04-02T21:49:49.690Z,0.24
2023-04-02T21:52:59.175Z,0.30
2023-04-02T21:56:18.746Z,0.27
2023-04-02T21:59:29.212Z,0.27
2023-04-02T22:02:38.697Z,0.26
2023-04-02T22:06:09.745Z,0.03
2023-04-02T22:09:22.062Z,0.14
2023-04-02T22:12:28.967Z,0.17
2023-04-02T22:15:35.761Z,0.12
2023-04-02T22:18:46.558Z,-0.06
2023-04-02T22:21:53.417Z,-0.05
2023-04-02T22:25:03.540Z,-0.05
2023-04-02T22:28:09.729Z,-0.03
2023-04-02T22:31:25.229Z,-0.22
2023-04-02T22:34:31.639Z,-0.22
2023-04-02T22:37:38.405Z,-0.18
2023-04-02T22:40:47.028Z,-0.18
2023-04-02T22:43:53.894Z,-0.34
2023-04-02T22:46:59.865Z,-0.43
2023-04-02T22:50:09.208Z,-0.38
2023-04-02T22:53:17.322Z,-0.36
2023-04-02T22:56:32.406Z,-0.52
2023-04-02T22:59:38.562Z,-0.42
2023-04-02T23:02:46.931Z,-0.40
2023-04-02T23:06:08.386Z,-0.70
2023-04-02T23:09:18.257Z,-0.60
2023-04-02T23:12:26.985Z,-0.58
2023-04-02T23:15:33.824Z,-0.56
2023-04-02T23:18:41.909Z,-0.66
2023-04-02T23:21:48.975Z,-0.64
2023-04-02T23:24:55.022Z,-0.53
2023-04-02T23:28:04.829Z,-0.67
2023-04-02T23:31:16.199Z,-0.59
2023-04-02T23:34:22.986Z,-0.51
2023-04-02T23:37:31.652Z,-0.46
2023-04-02T23:40:38.457Z,-0.44
2023-04-02T23:43:47.539Z,-0.41
2023-04-02T23:46:54.996Z,-0.51
2023-04-02T23:50:01.174Z,-0.43
2023-04-02T23:53:08.005Z,-0.59
2023-04-02T23:56:14.669Z,-0.48
2023-04-02T23:59:24.041Z,-0.45
